createdAt,value
2023-02-22T00:01:28.188Z,31.15
2023-02-22T00:03:57.456Z,33.10
2023-02-22T00:06:25.015Z,30.92
2023-02-22T00:08:58.288Z,32.50
2023-02-22T00:11:28.107Z,32.70
2023-02-22T00:13:57.199Z,30.60
2023-02-22T00:16:27.495Z,29.58
2023-02-22T00:18:56.473Z,31.20
2023-02-22T00:21:23.058Z,29.95
2023-02-22T00:23:54.452Z,29.05
2023-02-22T00:26:24.436Z,30.83
2023-02-22T00:28:54.422Z,33.25
2023-02-22T00:31:24.318Z,33.92
2023-02-22T00:33:57.005Z,31.77
2023-02-22T00:36:26.919Z,32.05
2023-02-22T00:38:57.706Z,30.90
2023-02-22T00:41:28.619Z,32.10
2023-02-22T00:44:02.794Z,30.52
2023-02-22T00:46:29.401Z,30.33
2023-02-22T00:48:58.059Z,31.50
2023-02-22T00:51:29.933Z,30.52
2023-02-22T00:53:57.521Z,31.90
2023-02-22T00:56:26.355Z,33.38
2023-02-22T00:58:55.503Z,32.40
2023-02-22T01:01:25.115Z,32.20
2023-02-22T01:03:51.713Z,33.15
2023-02-22T01:06:18.765Z,30.45
2023-02-22T01:08:46.283Z,28.70
2023-02-22T01:11:20.235Z,30.73
2023-02-22T01:13:50.246Z,27.77
2023-02-22T01:16:16.940Z,30.25
2023-02-22T01:18:54.988Z,28.02
2023-02-22T01:21:24.186Z,28.48
2023-02-22T01:23:51.745Z,30.17
2023-02-22T01:26:19.324Z,27.95
2023-02-22T01:28:46.419Z,29.50
2023-02-22T01:31:13.036Z,27.25
2023-02-22T01:33:54.143Z,28.42
2023-02-22T01:36:23.288Z,27.70
2023-02-22T01:38:57.190Z,28.70
2023-02-22T01:41:25.760Z,25.50
2023-02-22T01:44:00.104Z,26.98
2023-02-22T01:46:27.824Z,26.90
2023-02-22T01:49:05.842Z,28.63
2023-02-22T01:51:46.446Z,26.42
2023-02-22T01:54:27.655Z,26.63
2023-02-22T01:59:40.215Z,27.23
2023-02-22T02:02:09.436Z,28.20
2023-02-22T02:04:39.250Z,28.75
2023-02-22T02:07:09.890Z,29.50
2023-02-22T02:09:45.528Z,29.98
2023-02-22T02:12:23.940Z,28.67
2023-02-22T02:14:52.530Z,28.25
2023-02-22T02:17:26.695Z,27.67
2023-02-22T02:19:59.252Z,28.95
2023-02-22T02:22:44.414Z,27.33
2023-02-22T02:25:22.918Z,27.98
2023-02-22T02:27:55.658Z,27.05
2023-02-22T02:30:38.149Z,27.98
2023-02-22T02:35:51.279Z,24.95
2023-02-22T02:39:00.671Z,27.10
2023-02-22T02:41:39.731Z,25.40
2023-02-22T02:44:16.944Z,26.23
2023-02-22T02:46:55.940Z,24.92
2023-02-22T02:49:32.130Z,26.38
2023-02-22T02:51:59.750Z,26.58
2023-02-22T02:54:28.318Z,26.73
2023-02-22T02:56:59.271Z,28.73
2023-02-22T02:59:32.172Z,27.08
2023-02-22T03:02:38.795Z,27.25
2023-02-22T03:05:53.003Z,25.75
2023-02-22T03:08:44.905Z,24.30
2023-02-22T03:11:18.271Z,23.83
2023-02-22T03:14:11.605Z,22.00
2023-02-22T03:17:02.743Z,22.37
2023-02-22T03:19:38.121Z,23.70
2023-02-22T03:22:14.307Z,22.80
2023-02-22T03:25:09.136Z,21.85
2023-02-22T03:27:47.129Z,23.95
2023-02-22T03:30:28.826Z,23.08
2023-02-22T03:33:08.855Z,22.52
2023-02-22T03:35:56.660Z,21.45
2023-02-22T03:38:29.099Z,20.45
2023-02-22T03:41:02.931Z,21.58
2023-02-22T03:43:38.001Z,20.55
2023-02-22T03:46:16.886Z,18.85
2023-02-22T03:49:02.840Z,19.45
2023-02-22T03:51:33.365Z,20.13
2023-02-22T03:54:03.844Z,18.52
2023-02-22T03:56:46.974Z,19.20
2023-02-22T03:59:17.657Z,18.63
2023-02-22T04:01:47.676Z,17.67
2023-02-22T04:04:19.762Z,15.55
2023-02-22T04:06:52.280Z,16.77
2023-02-22T04:09:20.019Z,17.40
2023-02-22T04:11:49.345Z,17.08
2023-02-22T04:14:16.464Z,17.23
2023-02-22T04:16:43.073Z,18.70
2023-02-22T04:19:18.698Z,16.88
2023-02-22T04:21:49.866Z,15.93
2023-02-22T04:24:26.334Z,17.10
2023-02-22T04:26:55.297Z,17.33
2023-02-22T04:29:25.039Z,16.08
2023-02-22T04:31:51.712Z,15.88
2023-02-22T04:34:18.493Z,16.48
2023-02-22T04:36:52.093Z,16.42
2023-02-22T04:39:22.599Z,16.15
2023-02-22T04:44:20.045Z,15.20
2023-02-22T04:46:47.971Z,16.15
2023-02-22T04:49:20.253Z,15.80
2023-02-22T04:51:50.855Z,15.70
2023-02-22T04:54:27.619Z,15.27
2023-02-22T04:56:57.908Z,14.38
2023-02-22T04:59:30.423Z,15.73
2023-02-22T05:02:00.745Z,15.93
2023-02-22T05:04:27.467Z,13.55
2023-02-22T05:06:55.062Z,14.90
2023-02-22T05:09:21.924Z,14.15
2023-02-22T05:11:49.190Z,13.93
2023-02-22T05:14:15.756Z,14.88
2023-02-22T05:16:47.101Z,14.05
2023-02-22T05:19:16.205Z,14.48
2023-02-22T05:21:42.870Z,14.43
2023-02-22T05:24:09.453Z,12.80
2023-02-22T05:26:36.017Z,12.98
2023-02-22T05:29:04.762Z,11.80
2023-02-22T05:31:31.450Z,11.68
2023-02-22T05:34:03.637Z,11.63
2023-02-22T05:36:34.584Z,11.75
2023-02-22T05:39:01.173Z,11.65
2023-02-22T05:41:28.350Z,11.05
2023-02-22T05:43:59.721Z,11.70
2023-02-22T05:46:28.782Z,12.38
2023-02-22T05:48:55.441Z,12.25
2023-02-22T05:51:22.412Z,13.40
2023-02-22T05:53:53.113Z,12.63
2023-02-22T05:56:31.601Z,12.70
2023-02-22T05:59:00.563Z,11.27
2023-02-22T06:01:29.979Z,11.50
2023-02-22T06:04:01.121Z,10.32
2023-02-22T06:06:34.671Z,10.98
2023-02-22T06:09:01.337Z,11.07
2023-02-22T06:11:30.492Z,10.60
2023-02-22T06:13:59.954Z,11.20
2023-02-22T06:16:27.975Z,11.85
2023-02-22T06:18:54.525Z,11.85
2023-02-22T06:21:23.467Z,10.82
2023-02-22T06:23:53.417Z,11.00
2023-02-22T06:26:25.222Z,10.15
2023-02-22T06:28:54.441Z,10.30
2023-02-22T06:31:23.465Z,10.43
2023-02-22T06:33:50.033Z,11.65
2023-02-22T06:36:16.682Z,11.52
2023-02-22T06:38:43.286Z,11.50
2023-02-22T06:41:11.309Z,13.80
2023-02-22T06:43:41.092Z,13.40
2023-02-22T06:46:13.655Z,13.73
2023-02-22T06:48:40.347Z,14.43
2023-02-22T06:51:12.558Z,14.32
2023-02-22T06:53:39.205Z,13.07
2023-02-22T06:56:06.184Z,13.10
2023-02-22T06:58:34.934Z,12.65
2023-02-22T07:01:09.760Z,12.93
2023-02-22T07:03:39.117Z,13.20
2023-02-22T07:06:10.617Z,11.30
2023-02-22T07:11:04.686Z,10.90
2023-02-22T07:13:31.289Z,11.80
2023-02-22T07:15:57.972Z,12.57
2023-02-22T07:18:26.677Z,11.75
2023-02-22T07:20:55.733Z,11.05
2023-02-22T07:23:24.068Z,10.68
2023-02-22T07:25:53.080Z,10.90
2023-02-22T07:28:22.019Z,11.27
2023-02-22T07:30:56.078Z,10.15
2023-02-22T07:33:27.555Z,10.32
2023-02-22T07:36:00.208Z,9.60
2023-02-22T07:38:29.319Z,10.20
2023-02-22T07:41:00.025Z,10.40
2023-02-22T07:43:30.980Z,9.75
2023-02-22T07:46:02.577Z,11.45
2023-02-22T07:48:31.220Z,12.43
2023-02-22T07:51:04.406Z,14.20
2023-02-22T07:53:34.208Z,11.25
2023-02-22T07:56:08.702Z,12.63
2023-02-22T07:58:39.204Z,17.23
2023-02-22T08:01:05.922Z,14.13
2023-02-22T08:03:37.699Z,16.50
2023-02-22T08:06:09.345Z,17.45
2023-02-22T08:08:45.535Z,14.65
2023-02-22T08:11:12.614Z,13.10
2023-02-22T08:13:41.301Z,14.90
2023-02-22T08:16:10.208Z,20.40
2023-02-22T08:18:38.687Z,22.95
2023-02-22T08:21:05.565Z,23.30
2023-02-22T08:23:40.472Z,16.42
2023-02-22T08:26:20.577Z,15.07
2023-02-22T08:28:53.135Z,12.23
2023-02-22T08:31:20.113Z,12.73
2023-02-22T08:33:49.975Z,14.43
2023-02-22T08:36:21.060Z,13.68
2023-02-22T08:38:50.116Z,13.90
2023-02-22T08:41:17.210Z,14.57
2023-02-22T08:43:44.067Z,14.40
2023-02-22T08:46:10.663Z,14.30
2023-02-22T08:48:42.858Z,15.40
2023-02-22T08:51:09.784Z,14.45
2023-02-22T08:53:36.310Z,14.70
2023-02-22T08:56:08.795Z,15.07
2023-02-22T08:58:39.627Z,12.50
2023-02-22T09:01:09.471Z,14.23
2023-02-22T09:03:38.790Z,13.32
2023-02-22T09:06:07.851Z,14.15
2023-02-22T09:08:34.481Z,13.38
2023-02-22T09:11:04.434Z,13.60
2023-02-22T09:13:38.042Z,14.05
2023-02-22T09:16:07.377Z,12.77
2023-02-22T09:18:43.758Z,13.95
2023-02-22T09:21:13.064Z,13.00
2023-02-22T09:23:42.102Z,12.68
2023-02-22T09:26:10.245Z,12.90
2023-02-22T09:28:39.562Z,13.52
2023-02-22T09:31:06.158Z,13.00
2023-02-22T09:33:35.472Z,13.63
2023-02-22T09:36:06.758Z,12.82
2023-02-22T09:38:36.340Z,13.88
2023-02-22T09:41:15.785Z,12.80
2023-02-22T09:43:51.028Z,12.35
2023-02-22T09:46:35.605Z,13.10
2023-02-22T09:49:25.497Z,12.38
2023-02-22T09:52:18.663Z,13.00
2023-02-22T09:55:10.105Z,11.70
2023-02-22T09:57:42.465Z,12.30
2023-02-22T10:00:31.189Z,12.20
2023-02-22T10:03:26.152Z,11.07
2023-02-22T10:06:00.712Z,11.75
2023-02-22T10:08:33.328Z,12.95
2023-02-22T10:11:36.427Z,11.60
2023-02-22T10:14:28.975Z,10.98
2023-02-22T10:17:33.017Z,9.98
2023-02-22T10:20:25.154Z,11.18
2023-02-22T10:23:11.260Z,10.50
2023-02-22T10:25:50.940Z,10.57
2023-02-22T10:28:39.118Z,10.18
2023-02-22T10:31:22.874Z,9.98
2023-02-22T10:34:02.457Z,10.38
2023-02-22T10:36:31.570Z,10.18
2023-02-22T10:38:59.751Z,8.40
2023-02-22T10:41:28.949Z,9.27
2023-02-22T10:43:58.580Z,9.38
2023-02-22T10:46:34.693Z,9.07
2023-02-22T10:49:07.245Z,9.00
2023-02-22T10:51:41.098Z,9.60
2023-02-22T10:54:28.354Z,9.15
2023-02-22T10:56:59.997Z,9.13
2023-02-22T10:59:36.023Z,8.73
2023-02-22T11:02:19.755Z,8.63
2023-02-22T11:04:52.232Z,8.57
2023-02-22T11:07:34.992Z,9.30
2023-02-22T11:10:05.184Z,8.73
2023-02-22T11:12:33.541Z,9.27
2023-02-22T11:15:23.969Z,8.13
2023-02-22T11:17:57.531Z,8.75
2023-02-22T11:20:34.242Z,8.50
2023-02-22T11:23:09.926Z,7.88
2023-02-22T11:25:42.138Z,7.47
2023-02-22T11:28:30.722Z,6.60
2023-02-22T11:31:13.216Z,5.97
2023-02-22T11:33:46.165Z,6.07
2023-02-22T11:36:16.345Z,6.38
2023-02-22T11:38:59.314Z,5.97
2023-02-22T11:41:39.266Z,6.53
2023-02-22T11:44:29.240Z,6.40
2023-02-22T11:47:01.401Z,5.82
2023-02-22T11:49:41.832Z,7.43
2023-02-22T11:52:08.436Z,7.15
2023-02-22T11:54:55.186Z,6.50
2023-02-22T11:57:44.343Z,6.60
2023-02-22T12:00:26.121Z,6.30
2023-02-22T12:03:04.563Z,7.38
2023-02-22T12:05:59.482Z,6.60
2023-02-22T12:08:36.960Z,6.47
2023-02-22T12:11:31.822Z,6.80
2023-02-22T12:14:16.708Z,7.50
2023-02-22T12:17:17.949Z,7.25
2023-02-22T12:19:48.769Z,7.32
2023-02-22T12:22:26.539Z,9.10
2023-02-22T12:25:09.555Z,6.95
2023-02-22T12:27:58.850Z,6.88
2023-02-22T12:30:37.996Z,7.88
2023-02-22T12:33:24.047Z,7.82
2023-02-22T12:35:56.802Z,7.78
2023-02-22T12:38:44.214Z,7.00
2023-02-22T12:41:22.419Z,7.20
2023-02-22T12:43:59.879Z,8.60
2023-02-22T12:46:48.965Z,8.40
2023-02-22T12:49:28.779Z,7.78
2023-02-22T12:52:20.593Z,7.35
2023-02-22T12:57:25.744Z,8.82
2023-02-22T12:59:59.690Z,8.15
2023-02-22T13:02:36.983Z,8.55
2023-02-22T13:05:07.801Z,8.35
2023-02-22T13:08:01.679Z,7.68
2023-02-22T13:10:41.886Z,8.75
2023-02-22T13:13:41.684Z,8.00
2023-02-22T13:16:36.077Z,8.43
2023-02-22T13:19:42.275Z,7.20
2023-02-22T13:22:29.128Z,9.00
2023-02-22T13:25:14.775Z,8.80
2023-02-22T13:27:59.735Z,9.07
2023-02-22T13:30:56.841Z,8.63
2023-02-22T13:33:40.459Z,8.73
2023-02-22T13:36:35.469Z,9.35
2023-02-22T13:39:28.819Z,9.48
2023-02-22T13:42:24.309Z,9.13
2023-02-22T13:45:27.240Z,9.18
2023-02-22T13:48:19.884Z,10.23
2023-02-22T13:54:00.918Z,8.90
2023-02-22T13:56:30.299Z,9.68
2023-02-22T13:58:59.820Z,10.18
2023-02-22T14:01:47.432Z,9.90
2023-02-22T14:04:30.471Z,9.27
2023-02-22T14:07:02.597Z,9.45
2023-02-22T14:09:49.130Z,9.50
2023-02-22T14:12:30.886Z,10.60
2023-02-22T14:15:29.216Z,9.70
2023-02-22T14:18:05.041Z,9.65
2023-02-22T14:20:38.532Z,8.52
2023-02-22T14:23:31.353Z,9.13
2023-02-22T14:26:12.110Z,9.80
2023-02-22T14:28:50.174Z,10.57
2023-02-22T14:31:47.587Z,10.50
2023-02-22T14:34:15.449Z,9.35
2023-02-22T14:36:57.652Z,9.93
2023-02-22T14:39:38.367Z,10.27
2023-02-22T14:42:36.983Z,9.70
2023-02-22T14:45:11.864Z,10.45
2023-02-22T14:47:49.286Z,10.02
2023-02-22T14:50:44.730Z,11.43
2023-02-22T14:53:39.621Z,10.32
2023-02-22T14:56:15.174Z,10.45
2023-02-22T14:58:48.370Z,10.70
2023-02-22T15:01:47.491Z,10.90
2023-02-22T15:04:25.399Z,10.45
2023-02-22T15:06:53.830Z,10.07
2023-02-22T15:09:29.210Z,10.88
2023-02-22T15:12:05.664Z,10.70
2023-02-22T15:14:37.426Z,10.98
2023-02-22T15:17:26.175Z,10.88
2023-02-22T15:19:55.234Z,10.68
2023-02-22T15:22:29.300Z,12.68
2023-02-22T15:25:07.988Z,11.13
2023-02-22T15:27:37.021Z,11.05
2023-02-22T15:30:29.944Z,12.77
2023-02-22T15:33:04.438Z,11.73
2023-02-22T15:35:34.028Z,11.55
2023-02-22T15:38:03.871Z,12.45
2023-02-22T15:40:34.244Z,13.00
2023-02-22T15:43:08.692Z,12.38
2023-02-22T15:45:42.560Z,11.25
2023-02-22T15:48:13.539Z,12.77
2023-02-22T15:50:59.942Z,12.85
2023-02-22T15:53:53.318Z,12.27
2023-02-22T15:56:32.775Z,12.25
2023-02-22T15:59:13.691Z,12.25
2023-02-22T16:01:45.655Z,12.77
2023-02-22T16:04:21.951Z,12.70
2023-02-22T16:07:02.871Z,12.82
2023-02-22T16:09:30.244Z,13.07
2023-02-22T16:12:21.876Z,12.52
2023-02-22T16:14:49.850Z,12.77
2023-02-22T16:17:31.685Z,12.90
2023-02-22T16:20:21.788Z,12.85
2023-02-22T16:22:49.577Z,13.75
2023-02-22T16:25:20.344Z,14.15
2023-02-22T16:28:12.922Z,13.93
2023-02-22T16:30:40.165Z,14.40
2023-02-22T16:33:15.311Z,14.13
2023-02-22T16:35:51.605Z,14.18
2023-02-22T16:38:19.586Z,15.27
2023-02-22T16:40:52.143Z,14.85
2023-02-22T16:43:23.499Z,13.68
2023-02-22T16:45:52.616Z,14.00
2023-02-22T16:48:27.039Z,14.00
2023-02-22T16:50:58.613Z,14.52
2023-02-22T16:53:27.669Z,13.60
2023-02-22T16:56:00.530Z,14.38
2023-02-22T16:58:36.335Z,14.10
2023-02-22T17:01:06.234Z,14.48
2023-02-22T17:03:37.659Z,15.02
2023-02-22T17:06:10.274Z,14.27
2023-02-22T17:08:41.767Z,15.43
2023-02-22T17:11:11.028Z,16.40
2023-02-22T17:13:45.042Z,15.75
2023-02-22T17:16:15.856Z,15.48
2023-02-22T17:18:44.632Z,16.30
2023-02-22T17:21:11.838Z,15.88
2023-02-22T17:23:52.244Z,16.88
2023-02-22T17:26:21.454Z,14.27
2023-02-22T17:28:50.340Z,15.13
2023-02-22T17:31:25.163Z,16.33
2023-02-22T17:34:06.492Z,16.55
2023-02-22T17:36:38.735Z,15.35
2023-02-22T17:39:10.416Z,16.52
2023-02-22T17:41:40.330Z,15.50
2023-02-22T17:44:20.366Z,16.42
2023-02-22T17:46:47.050Z,16.05
2023-02-22T17:49:13.787Z,16.15
2023-02-22T17:51:51.046Z,16.20
2023-02-22T17:54:22.902Z,16.83
2023-02-22T17:56:51.961Z,16.58
2023-02-22T17:59:20.665Z,17.05
2023-02-22T18:01:48.024Z,17.48
2023-02-22T18:04:16.062Z,17.13
2023-02-22T18:06:42.817Z,16.98
2023-02-22T18:09:17.503Z,15.95
2023-02-22T18:11:44.097Z,16.00
2023-02-22T18:14:16.451Z,17.67
2023-02-22T18:19:09.573Z,17.88
2023-02-22T18:21:36.439Z,17.20
2023-02-22T18:24:05.799Z,17.50
2023-02-22T18:26:32.418Z,16.65
2023-02-22T18:29:00.932Z,16.20
2023-02-22T18:31:35.738Z,17.17
2023-02-22T18:34:05.507Z,17.70
2023-02-22T18:36:32.286Z,17.85
2023-02-22T18:38:58.962Z,18.00
2023-02-22T18:41:28.547Z,17.00
2023-02-22T18:44:03.905Z,17.60
2023-02-22T18:46:30.711Z,17.88
2023-02-22T18:48:59.844Z,19.08
2023-02-22T18:51:27.376Z,18.85
2023-02-22T18:54:08.673Z,17.90
2023-02-22T18:56:39.535Z,17.50
2023-02-22T18:59:11.879Z,18.48
2023-02-22T19:01:48.438Z,17.45
2023-02-22T19:04:17.956Z,17.38
2023-02-22T19:06:45.342Z,19.67
2023-02-22T19:09:12.045Z,17.52
2023-02-22T19:11:44.584Z,17.77
2023-02-22T19:14:11.201Z,19.58
2023-02-22T19:16:38.188Z,18.38
2023-02-22T19:19:07.190Z,19.70
2023-02-22T19:21:37.630Z,19.98
2023-02-22T19:24:08.408Z,19.52
2023-02-22T19:26:38.275Z,21.10
2023-02-22T19:29:05.982Z,20.80
2023-02-22T19:31:33.513Z,21.13
2023-02-22T19:34:08.976Z,20.50
2023-02-22T19:36:39.769Z,20.67
2023-02-22T19:39:10.879Z,21.25
2023-02-22T19:41:38.178Z,21.95
2023-02-22T19:44:05.699Z,22.52
2023-02-22T19:46:35.738Z,21.25
2023-02-22T19:49:02.745Z,22.90
2023-02-22T19:51:35.249Z,21.17
2023-02-22T19:54:04.641Z,20.95
2023-02-22T19:56:37.466Z,20.77
2023-02-22T19:59:09.211Z,22.15
2023-02-22T20:01:36.935Z,22.02
2023-02-22T20:04:06.523Z,22.65
2023-02-22T20:06:44.403Z,22.45
2023-02-22T20:09:18.808Z,21.45
2023-02-22T20:11:46.718Z,22.17
2023-02-22T20:14:19.910Z,23.55
2023-02-22T20:16:46.678Z,23.30
2023-02-22T20:19:16.447Z,23.85
2023-02-22T20:21:45.361Z,23.77
2023-02-22T20:24:17.983Z,22.70
2023-02-22T20:26:47.731Z,22.38
2023-02-22T20:29:14.906Z,23.50
2023-02-22T20:31:43.559Z,25.67
2023-02-22T20:34:11.340Z,24.30
2023-02-22T20:36:40.803Z,24.15
2023-02-22T20:39:13.111Z,24.70
2023-02-22T20:44:14.185Z,22.90
2023-02-22T20:46:43.090Z,23.55
2023-02-22T20:49:17.657Z,25.25
2023-02-22T20:51:45.656Z,23.92
2023-02-22T20:54:15.781Z,25.33
2023-02-22T20:56:50.715Z,23.42
2023-02-22T20:59:24.555Z,24.17
2023-02-22T21:01:55.529Z,25.02
2023-02-22T21:04:24.715Z,24.35
2023-02-22T21:06:51.936Z,22.45
2023-02-22T21:09:23.070Z,24.77
2023-02-22T21:11:52.387Z,25.48
2023-02-22T21:14:24.888Z,24.98
2023-02-22T21:16:54.401Z,22.23
2023-02-22T21:19:28.010Z,24.55
2023-02-22T21:22:00.009Z,21.65
2023-02-22T21:24:29.279Z,24.48
2023-02-22T21:27:00.656Z,21.98
2023-02-22T21:29:29.733Z,25.52
2023-02-22T21:31:56.996Z,25.67
2023-02-22T21:34:28.741Z,23.42
2023-02-22T21:37:00.327Z,26.15
2023-02-22T21:39:39.469Z,24.37
2023-02-22T21:42:07.148Z,24.70
2023-02-22T21:44:33.908Z,25.48
2023-02-22T21:47:02.778Z,27.33
2023-02-22T21:49:31.827Z,26.15
2023-02-22T21:51:58.477Z,26.60
2023-02-22T21:54:32.036Z,26.33
2023-02-22T21:57:02.528Z,27.13
2023-02-22T21:59:31.974Z,26.38
2023-02-22T22:02:01.245Z,25.27
2023-02-22T22:04:29.570Z,25.00
2023-02-22T22:07:00.247Z,25.85
2023-02-22T22:09:32.406Z,25.63
2023-02-22T22:12:05.577Z,23.95
2023-02-22T22:14:35.545Z,24.85
2023-02-22T22:17:05.353Z,25.20
2023-02-22T22:19:37.654Z,26.75
2023-02-22T22:24:34.742Z,22.75
2023-02-22T22:27:08.325Z,26.30
2023-02-22T22:29:39.468Z,26.38
2023-02-22T22:32:13.780Z,27.33
2023-02-22T22:34:42.395Z,25.08
2023-02-22T22:37:14.440Z,28.13
2023-02-22T22:39:48.455Z,24.45
2023-02-22T22:42:22.068Z,26.98
2023-02-22T22:44:50.226Z,26.98
2023-02-22T22:47:21.035Z,27.27
2023-02-22T22:49:51.621Z,26.23
2023-02-22T22:52:21.177Z,23.40
2023-02-22T22:54:54.924Z,25.08
2023-02-22T22:57:29.801Z,25.33
2023-02-22T23:00:01.533Z,25.50
2023-02-22T23:02:31.418Z,23.65
2023-02-22T23:05:01.734Z,23.20
2023-02-22T23:07:28.465Z,24.90
2023-02-22T23:09:59.674Z,24.60
2023-02-22T23:12:31.297Z,24.38
2023-02-22T23:15:02.126Z,25.42
2023-02-22T23:17:40.661Z,22.00
2023-02-22T23:20:17.941Z,22.30
2023-02-22T23:22:50.364Z,20.52
2023-02-22T23:27:45.327Z,21.05
2023-02-22T23:30:15.101Z,21.95
2023-02-22T23:32:49.060Z,20.60
2023-02-22T23:35:22.128Z,20.70
2023-02-22T23:37:59.753Z,20.52
2023-02-22T23:40:29.531Z,19.48
2023-02-22T23:42:56.334Z,18.83
2023-02-22T23:45:46.353Z,19.25
2023-02-22T23:48:20.159Z,21.40
2023-02-22T23:50:58.083Z,23.65
2023-02-22T23:53:29.878Z,22.25
2023-02-22T23:56:00.088Z,21.67
2023-02-22T23:58:35.684Z,20.70
